Terminal Aerodrome Forecast
Issued by NWS Atlanta, GA

Current Version | Previous Version | Text Only | Print | Product List | Glossary On
Versions: 1 2 3 4 5 6 7 8 9 10 11 12 13 14 15
911
FTUS42 KFFC 221720
TAFMCN
TAF
KMCN 221720Z 2218/2318 08005KT P6SM FEW050
     FM222000 07006KT P6SM VCSH SCT050
     FM230400 VRB03KT P6SM FEW060 SCT150
     FM231600 08005KT P6SM FEW045=

USA.gov is the U.S. government's official web portal to all federal, state and local government web resources and services.